Latest Coastal Weather Observations for Warruwi

IDD60701

Issued at 10:05 am CST Tuesday 25 November 2014 (issued every 10 minutes, with the page automatically refreshed every 10 minutes)

About coastal observations | Map of coastal stations | Coastal observations for NT | Marine services | Other Formats
Station Details ID: 014401 Name: WARRUWI AIRPORT Lat: -11.65 Lon: 133.38 Height: 19.2 m
Data from the previous 72 hours. | See also: Recent months at Warruwi
Date/Time
CST
Temp

°C
Wind Pressure Rain
since 9am
mm
Weather Cloud Vis
km
Sea
Height
m
Swell
Dir
 
Speed
knots
Gust
knots
hPa Trend Height
m
Period
s
Dir
25/10:00am 31.3 E 9 11 1009.7 - 0.0 - - - - - - -
25/09:30am 31.1 E 7 10 1009.7 - 0.0 - - - - - - -
25/09:00am 30.9 E 6 9 1009.7 - 0.0 - - - - - - -
25/08:30am 30.5 E 6 9 1009.6 - 0.0 - - - - - - -
25/08:00am 29.1 ENE 4 5 1009.6 - 0.0 - - - - - - -
25/07:30am 29.1 E 3 4 1009.6 - 0.0 - - - - - - -
25/07:00am 28.4 ENE 1 2 1009.4 - 0.0 - - - - - - -
25/06:30am 27.2 CALM 0 0 1009.0 - 0.0 - - - - - - -
25/06:00am 26.8 N 1 2 1008.5 - 0.0 - - - - - - -
25/05:30am 27.0 - - - 1008.2 - - - - - - - - -
25/05:00am 27.2 - - - 1008.3 - - - - - - - - -
25/04:30am 27.2 CALM 0 0 1008.2 - 0.0 - - - - - - -
25/04:00am 27.4 CALM 0 0 1008.0 - 0.0 - - - - - - -
25/03:30am 27.4 NNE 1 1 1007.6 - 0.0 - - - - - - -
25/03:00am 27.2 CALM 0 1 1007.7 - 0.0 - - - - - - -
25/02:30am 27.4 CALM 0 0 1008.0 - 0.0 - - - - - - -
25/02:00am 27.6 CALM 0 0 1008.4 - 0.0 - - - - - - -
25/01:30am 27.6 CALM 0 0 1008.8 - 0.0 - - - - - - -
25/01:00am 27.9 CALM 0 0 1009.1 - 0.0 - - - - - - -
25/12:30am 28.2 CALM 0 0 1009.7 - 0.0 - - - - - - -
25/12:00am 28.4 CALM 0 0 1010.2 - 0.0 - - - - - - -
 
Date/Time
CST
Temp

°C
Wind Pressure Rain
since 9am
mm
Weather Cloud Vis
km
Sea
Height
m
Swell
Dir
 
Speed
knots
Gust
knots
hPa Trend Height
m
Period
s
Dir
24/11:30pm 28.2 CALM 0 0 1010.3 - 0.0 - - - - - - -
24/11:00pm 28.3 CALM 0 1 1010.2 - 0.0 - - - - - - -
24/10:30pm 28.3 N 2 3 1010.0 - 0.0 - - - - - - -
24/10:00pm 28.4 CALM 0 1 1010.2 - 0.0 - - - - - - -
24/09:30pm 28.6 CALM 0 0 1010.0 - 0.0 - - - - - - -
24/09:00pm 28.6 NNE 1 3 1009.6 - 0.0 - - - - - - -
24/08:30pm 28.7 N 3 6 1009.0 - 0.0 - - - - - - -
24/08:00pm 28.8 N 3 5 1008.7 - 0.0 - - - - - - -
24/07:30pm 28.9 N 3 5 1008.3 - 0.0 - - - - - - -
24/07:00pm 29.1 N 5 9 1007.8 - 0.0 - - - - - - -
24/06:30pm 29.4 NNE 5 8 1007.7 - 0.0 - - - - - - -
24/06:00pm 30.2 NNE 5 10 1007.1 - 0.0 - - - - - - -
24/05:30pm 30.3 N 6 14 1006.8 - 0.0 - - - - - - -
24/05:00pm 30.7 NE 8 13 1006.4 - 0.0 - - - - - - -
24/04:30pm 31.1 NE 8 13 1006.5 - 0.0 - - - - - - -
24/04:00pm 31.5 NNE 10 16 1006.6 - 0.0 - - - - - - -
24/03:30pm 32.1 NNE 7 14 1007.2 - 0.0 - - - - - - -
24/03:00pm 32.5 NE 8 13 1007.6 - 0.0 - - - - - - -
24/02:30pm 32.5 ENE 7 12 1008.1 - 0.0 - - - - - - -
24/02:00pm 33.0 ENE 6 10 1008.5 - 0.0 - - - - - - -
24/01:30pm 32.7 ENE 7 10 1009.1 - 0.0 - - - - - - -
24/01:00pm 32.2 E 7 11 1009.7 - 0.0 - - - - - - -
24/12:30pm 32.2 E 7 12 1010.4 - 0.0 - - - - - - -
24/12:00pm 32.9 E 8 11 1010.7 - 0.0 - - - - - - -
24/11:30am 32.3 E 7 11 1011.1 - 0.0 - - - - - - -
24/11:00am 32.3 ESE 7 10 1011.4 - 0.0 - - - - - - -
24/10:30am 31.5 E 7 10 1011.5 - 0.0 - - - - - - -
24/10:00am 31.3 E 7 11 1011.4 - 0.0 - - - - - - -
24/09:30am 31.4 E 6 8 1011.2 - 0.0 - - - - - - -
24/09:00am 30.4 NE 3 6 1010.9 - 0.0 - - - - - - -
24/08:30am 30.4 E 4 7 1010.7 - 0.0 - - - - - - -
24/08:00am 30.2 E 4 6 1010.8 - 0.0 - - - - - - -
24/07:30am 29.4 NNE 2 5 1010.5 - 0.0 - - - - - - -
24/07:00am 28.8 CALM 0 1 1010.3 - 0.0 - - - - - - -
24/06:30am 27.1 CALM 0 2 1009.9 - 0.0 - - - - - - -
24/06:00am 26.8 CALM 0 0 1009.8 - 0.0 - - - - - - -
24/05:30am 27.3 CALM 0 1 1009.6 - 0.0 - - - - - - -
24/05:00am 27.5 CALM 0 0 1009.3 - 0.0 - - - - - - -
24/04:30am 27.7 NE 2 4 1009.1 - 0.0 - - - - - - -
24/04:00am 27.8 NNE 2 5 1009.0 - 0.0 - - - - - - -
24/03:30am 28.1 NE 3 6 1009.1 - 0.0 - - - - - - -
24/03:00am 28.0 ENE 3 5 1009.1 - 0.0 - - - - - - -
24/02:30am 28.1 NE 3 5 1009.3 - 0.0 - - - - - - -
24/02:00am 28.0 NE 3 6 1009.3 - 0.0 - - - - - - -
24/01:30am 28.0 NE 3 5 1009.4 - 0.0 - - - - - - -
24/01:00am 28.1 NE 4 8 1009.7 - 0.0 - - - - - - -
24/12:30am 28.2 NE 4 7 1010.0 - 0.0 - - - - - - -
24/12:00am 28.3 NE 4 8 1010.3 - 0.0 - - - - - - -
 
Date/Time
CST
Temp

°C
Wind Pressure Rain
since 9am
mm
Weather Cloud Vis
km
Sea
Height
m
Swell
Dir
 
Speed
knots
Gust
knots
hPa Trend Height
m
Period
s
Dir
23/11:30pm 28.3 NE 4 7 1010.2 - 0.0 - - - - - - -
23/11:00pm 28.3 NE 4 8 1010.3 - 0.0 - - - - - - -
23/10:30pm 28.4 NE 4 8 1010.2 - 0.0 - - - - - - -
23/10:00pm 28.3 NE 3 6 1010.1 - 0.0 - - - - - - -
23/09:30pm 28.5 NE 5 12 1010.0 - 0.0 - - - - - - -
23/09:00pm 28.5 NE 4 7 1009.6 - 0.0 - - - - - - -
23/08:30pm 28.5 NNE 6 10 1009.2 - 0.0 - - - - - - -
23/08:00pm 28.6 NE 5 11 1009.0 - 0.0 - - - - - - -
23/07:30pm 28.6 NNE 6 11 1008.7 - 0.0 - - - - - - -
23/07:00pm 28.8 NE 8 18 1008.4 - 0.0 - - - - - - -
23/06:30pm 29.2 NE 8 14 1008.4 - 0.0 - - - - - - -
23/06:00pm 29.7 NE 8 14 1008.4 - 0.0 - - - - - - -
23/05:30pm 30.3 NE 7 13 1008.4 - 0.0 - - - - - - -
23/05:00pm 31.3 NE 7 16 1008.4 - 0.0 - - - - - - -
23/04:30pm 31.5 NE 9 14 1008.4 - 0.0 - - - - - - -
23/04:00pm 32.3 ENE 7 13 1008.4 - 0.0 - - - - - - -
23/03:30pm 32.6 NE 7 10 1008.7 - 0.0 - - - - - - -
23/03:00pm 32.8 E 9 14 1009.0 - 0.0 - - - - - - -
23/02:30pm 33.0 E 10 15 1009.3 - 0.0 - - - - - - -
23/02:00pm 33.8 E 10 14 1009.7 - 0.0 - - - - - - -
23/01:30pm 34.0 E 10 13 1010.1 - 0.0 - - - - - - -
23/01:00pm 32.9 E 8 11 1010.4 - 0.0 - - - - - - -
23/12:30pm 33.5 E 7 9 1010.5 - 0.0 - - - - - - -
23/12:00pm 32.8 E 5 8 1011.0 - 0.0 - - - - - - -
23/11:30am 32.4 E 5 10 1011.5 - 0.0 - - - - - - -
23/11:00am 31.5 E 5 8 1011.9 - 0.0 - - - - - - -
23/10:30am 31.7 E 6 11 1012.0 - 0.0 - - - - - - -
23/10:00am 31.6 E 6 8 1012.3 - 0.0 - - - - - - -
23/09:30am 31.3 E 9 11 1012.4 - 0.0 - - - - - - -
23/09:00am 31.1 E 6 8 1012.3 - 0.0 - - - - - - -
23/08:30am 31.2 E 4 7 1012.3 - 0.0 - - - - - - -
23/08:00am 30.5 ENE 4 8 1011.9 - 0.0 - - - - - - -
23/07:30am 29.7 ENE 4 7 1011.7 - 0.0 - - - - - - -
23/07:00am 29.3 NE 3 7 1011.6 - 0.0 - - - - - - -
23/06:30am 27.7 CALM 0 0 1011.4 - 0.0 - - - - - - -
23/06:00am 27.3 CALM 0 2 1011.0 - 0.0 - - - - - - -
23/05:30am 27.8 NE 2 4 1010.8 - 0.0 - - - - - - -
23/05:00am 28.1 NE 2 5 1010.6 - 0.0 - - - - - - -
23/04:30am 28.0 NE 2 5 1010.2 - 0.0 - - - - - - -
23/04:00am 28.2 NE 4 7 1010.1 - 0.0 - - - - - - -
23/03:30am 28.2 NE 3 6 1010.2 - 0.0 - - - - - - -
23/03:00am 28.2 NNE 3 5 1010.3 - 0.0 - - - - - - -
23/02:30am 28.2 ENE 3 6 1010.3 - 0.0 - - - - - - -
23/02:00am 28.2 NE 3 6 1010.2 - 0.0 - - - - - - -
23/01:30am 28.1 NE 2 5 1010.2 - 0.0 - - - - - - -
23/01:00am 27.9 NNE 2 3 1010.6 - 0.0 - - - - - - -
23/12:30am 28.3 NNE 3 5 1010.6 - 0.0 - - - - - - -
23/12:00am 27.8 ENE 2 3 1010.6 - 0.0 - - - - - - -
 
Date/Time
CST
Temp

°C
Wind Pressure Rain
since 9am
mm
Weather Cloud Vis
km
Sea
Height
m
Swell
Dir
 
Speed
knots
Gust
knots
hPa Trend Height
m
Period
s
Dir
22/11:30pm 27.8 NNE 1 2 1010.6 - 0.0 - - - - - - -
22/11:00pm 28.0 NNE 2 3 1010.7 - 0.0 - - - - - - -
22/10:30pm 28.3 NNE 2 4 1010.8 - 0.0 - - - - - - -
22/10:00pm 28.5 NNE 2 4 1010.9 - 0.0 - - - - - - -
22/09:30pm 28.5 NNE 3 5 1010.9 - 0.0 - - - - - - -
22/09:00pm 28.7 NNE 3 6 1010.7 - 0.0 - - - - - - -
22/08:30pm 28.9 NNE 4 6 1010.4 - 0.0 - - - - - - -
22/08:00pm 28.9 NNE 4 7 1010.3 - 0.0 - - - - - - -
22/07:30pm 29.1 NNE 4 8 1009.9 - 0.0 - - - - - - -
22/07:00pm 29.2 NE 5 9 1009.6 - 0.0 - - - - - - -
22/06:30pm 29.5 NNE 6 9 1009.3 - 0.0 - - - - - - -
22/06:00pm 30.6 NE 5 10 1009.1 - 0.0 - - - - - - -
22/05:30pm 30.9 NE 7 12 1009.0 - 0.0 - - - - - - -
22/05:00pm 31.4 NE 7 11 1008.9 - 0.0 - - - - - - -
22/04:30pm 31.7 ENE 7 11 1008.8 - 0.0 - - - - - - -
22/04:00pm 31.9 NE 7 11 1009.0 - 0.0 - - - - - - -
22/03:30pm 33.0 NNE 8 14 1009.1 - 0.0 - - - - - - -
22/03:00pm 32.9 ENE 8 13 1009.6 - 0.0 - - - - - - -
22/02:30pm 32.6 E 10 15 1009.7 - 0.0 - - - - - - -
22/02:00pm 32.5 ENE 8 12 1010.3 - 0.0 - - - - - - -
22/01:30pm 32.5 ENE 9 14 1010.6 - 0.0 - - - - - - -
22/01:00pm 32.5 E 9 13 1011.1 - 0.0 - - - - - - -
22/12:30pm 32.4 E 9 12 1011.4 - 0.0 - - - - - - -
22/12:00pm 32.4 E 8 12 1011.7 - 0.0 - - - - - - -
22/11:30am 32.4 E 7 11 1011.8 - 0.0 - - - - - - -
22/11:00am 31.7 E 7 11 1012.0 - 0.0 - - - - - - -
22/10:30am 32.0 E 7 10 1012.2 - 0.0 - - - - - - -

Other Formats:

Comma delimited format used in spreadsheet applications
http://www.bom.gov.au/fwo/IDD60701/IDD60701.94139.axf

JavaScript Object Notation format (JSON) in row-major order
http://www.bom.gov.au/fwo/IDD60701/IDD60701.94139.json